Terminal Aerodrome Forecast
Issued by NWS

Home | Current Version | Previous Version | Graphics & Text | Print | Product List | Glossary On
Versions: 1 2 3 4 5 6 7 8 9 10 11 12 13 14 15 16 17 18 19 20 21 22 23
000
FTUS41 KCLE 252100 AAA
TAFFDY
TAF AMD
KFDY 252113Z 2521/2618 06018G26KT 1 1/2SM -SN SCT012 OVC025
     FM252200 05015G25KT 1SM -SN OVC012
      TEMPO 2522/2602 3/4SM -SN OVC008
     FM260200 04015G25KT 1 1/2SM -SN BR OVC008
     FM260700 03015G25KT 4SM -SN BR OVC006
     FM261000 02012KT P6SM OVC007
     FM261200 36010KT P6SM OVC015=

USA.gov is the U.S. government's official web portal to all federal, state and local government web resources and services.